sensor_id;sensor_type;location;lat;lon;timestamp;P1;durP1;ratioP1;P2;durP2;ratioP2
77495;SDS011;66600;48.378;9.948;2024-03-23T00:51:37;7.15;;;4.90;;
77495;SDS011;66600;48.378;9.948;2024-03-23T00:54:11;9.15;;;4.90;;
77495;SDS011;66600;48.378;9.948;2024-03-23T00:54:42;9.90;;;5.40;;
77495;SDS011;66600;48.378;9.948;2024-03-23T00:55:12;6.13;;;4.90;;
77495;SDS011;66600;48.378;9.948;2024-03-23T00:55:42;9.02;;;4.95;;
77495;SDS011;66600;48.378;9.948;2024-03-23T00:56:13;7.82;;;5.28;;
77495;SDS011;66600;48.378;9.948;2024-03-23T00:56:44;10.32;;;5.40;;
77495;SDS011;66600;48.378;9.948;2024-03-23T00:57:14;7.72;;;4.97;;
77495;SDS011;66600;48.378;9.948;2024-03-23T00:57:44;8.98;;;5.43;;
77495;SDS011;66600;48.378;9.948;2024-03-23T00:58:15;5.97;;;4.68;;
77495;SDS011;66600;48.378;9.948;2024-03-23T00:58:45;6.75;;;4.90;;
77495;SDS011;66600;48.378;9.948;2024-03-23T00:59:15;9.38;;;5.35;;
77495;SDS011;66600;48.378;9.948;2024-03-23T00:59:46;7.00;;;5.00;;
77495;SDS011;66600;48.378;9.948;2024-03-23T01:00:16;8.25;;;5.13;;
77495;SDS011;66600;48.378;9.948;2024-03-23T01:00:46;8.85;;;5.13;;
77495;SDS011;66600;48.378;9.948;2024-03-23T01:01:17;7.43;;;5.10;;
77495;SDS011;66600;48.378;9.948;2024-03-23T01:01:47;7.20;;;5.00;;
77495;SDS011;66600;48.378;9.948;2024-03-23T01:02:17;7.85;;;4.82;;
77495;SDS011;66600;48.378;9.948;2024-03-23T01:02:48;7.43;;;4.72;;
77495;SDS011;66600;48.378;9.948;2024-03-23T01:03:19;8.80;;;4.65;;
77495;SDS011;66600;48.378;9.948;2024-03-23T01:03:49;8.07;;;4.82;;
77495;SDS011;66600;48.378;9.948;2024-03-23T01:04:20;7.45;;;4.50;;
77495;SDS011;66600;48.378;9.948;2024-03-23T01:04:50;7.70;;;4.90;;
77495;SDS011;66600;48.378;9.948;2024-03-23T01:05:20;7.50;;;4.95;;
77495;SDS011;66600;48.378;9.948;2024-03-23T01:05:51;8.48;;;5.00;;
77495;SDS011;66600;48.378;9.948;2024-03-23T01:06:23;9.07;;;5.03;;
77495;SDS011;66600;48.378;9.948;2024-03-23T01:06:53;6.82;;;4.70;;
77495;SDS011;66600;48.378;9.948;2024-03-23T01:07:23;6.97;;;4.75;;
77495;SDS011;66600;48.378;9.948;2024-03-23T01:07:54;10.55;;;5.13;;
77495;SDS011;66600;48.378;9.948;2024-03-23T01:08:24;8.05;;;5.10;;
77495;SDS011;66600;48.378;9.948;2024-03-23T01:08:55;6.35;;;4.85;;
77495;SDS011;66600;48.378;9.948;2024-03-23T01:09:25;6.57;;;4.63;;
77495;SDS011;66600;48.378;9.948;2024-03-23T01:09:55;6.50;;;4.57;;
77495;SDS011;66600;48.378;9.948;2024-03-23T01:10:25;6.55;;;4.85;;
77495;SDS011;66600;48.378;9.948;2024-03-23T01:10:56;6.97;;;4.90;;
77495;SDS011;66600;48.378;9.948;2024-03-23T01:11:27;6.68;;;4.78;;
77495;SDS011;66600;48.378;9.948;2024-03-23T01:11:58;7.15;;;4.90;;
77495;SDS011;66600;48.378;9.948;2024-03-23T01:12:28;6.60;;;5.00;;
77495;SDS011;66600;48.378;9.948;2024-03-23T01:12:59;7.05;;;5.00;;
77495;SDS011;66600;48.378;9.948;2024-03-23T01:13:29;11.57;;;4.65;;
77495;SDS011;66600;48.378;9.948;2024-03-23T01:14:00;7.80;;;4.65;;
77495;SDS011;66600;48.378;9.948;2024-03-23T01:14:30;7.38;;;4.90;;
77495;SDS011;66600;48.378;9.948;2024-03-23T01:15:00;8.02;;;4.72;;
77495;SDS011;66600;48.378;9.948;2024-03-23T01:15:31;6.32;;;4.80;;
77495;SDS011;66600;48.378;9.948;2024-03-23T01:16:01;8.20;;;4.95;;
77495;SDS011;66600;48.378;9.948;2024-03-23T01:16:31;8.75;;;4.43;;
77495;SDS011;66600;48.378;9.948;2024-03-23T01:17:02;5.85;;;4.25;;
77495;SDS011;66600;48.378;9.948;2024-03-23T01:17:32;7.45;;;4.45;;
77495;SDS011;66600;48.378;9.948;2024-03-23T01:18:03;6.30;;;4.55;;
77495;SDS011;66600;48.378;9.948;2024-03-23T01:18:33;7.68;;;4.50;;
77495;SDS011;66600;48.378;9.948;2024-03-23T01:19:03;6.75;;;4.47;;
77495;SDS011;66600;48.378;9.948;2024-03-23T01:19:34;7.00;;;4.40;;
77495;SDS011;66600;48.378;9.948;2024-03-23T01:20:05;6.68;;;4.40;;
77495;SDS011;66600;48.378;9.948;2024-03-23T01:20:36;6.65;;;4.32;;
77495;SDS011;66600;48.378;9.948;2024-03-23T01:21:06;6.97;;;4.57;;
77495;SDS011;66600;48.378;9.948;2024-03-23T01:21:37;6.88;;;4.50;;
77495;SDS011;66600;48.378;9.948;2024-03-23T01:22:07;6.80;;;4.22;;
77495;SDS011;66600;48.378;9.948;2024-03-23T01:22:40;6.93;;;4.30;;
77495;SDS011;66600;48.378;9.948;2024-03-23T01:23:10;7.22;;;4.63;;
77495;SDS011;66600;48.378;9.948;2024-03-23T01:23:40;7.20;;;4.15;;
77495;SDS011;66600;48.378;9.948;2024-03-23T01:24:12;5.97;;;4.28;;
77495;SDS011;66600;48.378;9.948;2024-03-23T01:24:42;7.75;;;4.45;;
77495;SDS011;66600;48.378;9.948;2024-03-23T01:25:13;7.57;;;4.57;;
77495;SDS011;66600;48.378;9.948;2024-03-23T01:25:43;7.13;;;4.32;;
77495;SDS011;66600;48.378;9.948;2024-03-23T01:26:13;7.63;;;4.57;;
77495;SDS011;66600;48.378;9.948;2024-03-23T01:26:44;8.60;;;4.53;;
77495;SDS011;66600;48.378;9.948;2024-03-23T01:27:15;5.78;;;4.32;;
77495;SDS011;66600;48.378;9.948;2024-03-23T01:27:45;6.75;;;4.30;;
77495;SDS011;66600;48.378;9.948;2024-03-23T01:28:15;6.53;;;4.70;;
77495;SDS011;66600;48.378;9.948;2024-03-23T01:28:46;6.50;;;4.38;;
77495;SDS011;66600;48.378;9.948;2024-03-23T01:29:16;5.53;;;4.25;;
77495;SDS011;66600;48.378;9.948;2024-03-23T01:29:47;5.55;;;4.50;;
77495;SDS011;66600;48.378;9.948;2024-03-23T01:30:17;6.10;;;4.35;;
77495;SDS011;66600;48.378;9.948;2024-03-23T01:30:48;6.82;;;4.40;;
77495;SDS011;66600;48.378;9.948;2024-03-23T01:31:18;8.05;;;4.40;;
77495;SDS011;66600;48.378;9.948;2024-03-23T01:31:49;5.70;;;4.43;;
77495;SDS011;66600;48.378;9.948;2024-03-23T01:32:19;5.50;;;4.22;;
77495;SDS011;66600;48.378;9.948;2024-03-23T01:32:49;6.57;;;4.50;;
77495;SDS011;66600;48.378;9.948;2024-03-23T01:33:20;7.47;;;4.32;;
77495;SDS011;66600;48.378;9.948;2024-03-23T01:33:50;6.57;;;4.40;;
77495;SDS011;66600;48.378;9.948;2024-03-23T01:34:20;8.55;;;4.75;;
77495;SDS011;66600;48.378;9.948;2024-03-23T01:34:51;7.18;;;4.78;;
77495;SDS011;66600;48.378;9.948;2024-03-23T01:35:21;6.60;;;4.38;;
77495;SDS011;66600;48.378;9.948;2024-03-23T01:35:51;6.72;;;4.88;;
77495;SDS011;66600;48.378;9.948;2024-03-23T01:36:22;7.97;;;4.47;;
77495;SDS011;66600;48.378;9.948;2024-03-23T01:36:52;5.85;;;4.50;;
77495;SDS011;66600;48.378;9.948;2024-03-23T01:37:22;7.95;;;4.25;;
77495;SDS011;66600;48.378;9.948;2024-03-23T01:37:53;6.57;;;4.60;;
77495;SDS011;66600;48.378;9.948;2024-03-23T01:38:23;6.30;;;4.30;;
77495;SDS011;66600;48.378;9.948;2024-03-23T01:38:53;8.65;;;4.70;;
77495;SDS011;66600;48.378;9.948;2024-03-23T01:39:24;7.95;;;4.90;;
77495;SDS011;66600;48.378;9.948;2024-03-23T01:39:55;5.75;;;4.38;;
77495;SDS011;66600;48.378;9.948;2024-03-23T01:40:25;7.00;;;4.47;;
77495;SDS011;66600;48.378;9.948;2024-03-23T01:40:57;7.68;;;4.80;;
77495;SDS011;66600;48.378;9.948;2024-03-23T01:41:28;7.35;;;4.80;;
77495;SDS011;66600;48.378;9.948;2024-03-23T01:41:58;7.25;;;5.13;;
77495;SDS011;66600;48.378;9.948;2024-03-23T01:42:28;7.80;;;4.60;;
77495;SDS011;66600;48.378;9.948;2024-03-23T01:43:02;6.40;;;4.95;;
77495;SDS011;66600;48.378;9.948;2024-03-23T01:43:34;7.32;;;5.00;;
77495;SDS011;66600;48.378;9.948;2024-03-23T01:44:05;6.78;;;4.88;;
77495;SDS011;66600;48.378;9.948;2024-03-23T01:44:37;6.80;;;4.68;;
77495;SDS011;66600;48.378;9.948;2024-03-23T01:45:08;7.18;;;4.80;;
77495;SDS011;66600;48.378;9.948;2024-03-23T01:45:42;7.85;;;4.60;;
77495;SDS011;66600;48.378;9.948;2024-03-23T01:46:12;6.93;;;4.80;;
77495;SDS011;66600;48.378;9.948;2024-03-23T01:46:43;6.95;;;4.65;;
77495;SDS011;66600;48.378;9.948;2024-03-23T01:47:14;6.88;;;4.60;;
77495;SDS011;66600;48.378;9.948;2024-03-23T01:47:45;6.40;;;4.85;;
77495;SDS011;66600;48.378;9.948;2024-03-23T01:48:15;7.47;;;5.03;;
77495;SDS011;66600;48.378;9.948;2024-03-23T01:48:45;6.50;;;4.63;;
77495;SDS011;66600;48.378;9.948;2024-03-23T01:49:16;6.55;;;4.57;;
77495;SDS011;66600;48.378;9.948;2024-03-23T01:49:47;7.00;;;4.80;;
77495;SDS011;66600;48.378;9.948;2024-03-23T01:50:17;5.68;;;4.65;;
77495;SDS011;66600;48.378;9.948;2024-03-23T01:50:48;7.55;;;5.18;;
77495;SDS011;66600;48.378;9.948;2024-03-23T01:51:18;6.75;;;4.93;;
77495;SDS011;66600;48.378;9.948;2024-03-23T01:51:49;8.80;;;5.07;;
77495;SDS011;66600;48.378;9.948;2024-03-23T01:52:19;7.32;;;4.80;;
77495;SDS011;66600;48.378;9.948;2024-03-23T01:52:50;6.82;;;4.90;;
77495;SDS011;66600;48.378;9.948;2024-03-23T01:53:20;8.30;;;4.55;;
77495;SDS011;66600;48.378;9.948;2024-03-23T01:53:53;5.53;;;4.70;;
77495;SDS011;66600;48.378;9.948;2024-03-23T01:54:24;6.63;;;4.70;;
77495;SDS011;66600;48.378;9.948;2024-03-23T01:54:55;6.28;;;4.30;;
77495;SDS011;66600;48.378;9.948;2024-03-23T01:55:25;6.55;;;4.70;;
77495;SDS011;66600;48.378;9.948;2024-03-23T01:55:57;6.97;;;4.95;;
77495;SDS011;66600;48.378;9.948;2024-03-23T01:56:27;7.30;;;4.93;;
77495;SDS011;66600;48.378;9.948;2024-03-23T01:56:58;7.38;;;5.00;;
77495;SDS011;66600;48.378;9.948;2024-03-23T01:57:30;5.93;;;4.60;;
77495;SDS011;66600;48.378;9.948;2024-03-23T01:58:00;6.93;;;4.40;;
77495;SDS011;66600;48.378;9.948;2024-03-23T01:58:30;7.18;;;4.32;;
77495;SDS011;66600;48.378;9.948;2024-03-23T01:59:01;8.30;;;4.80;;
77495;SDS011;66600;48.378;9.948;2024-03-23T01:59:32;5.63;;;4.30;;
77495;SDS011;66600;48.378;9.948;2024-03-23T02:00:03;6.57;;;4.30;;
77495;SDS011;66600;48.378;9.948;2024-03-23T02:00:34;6.97;;;5.07;;
77495;SDS011;66600;48.378;9.948;2024-03-23T02:01:04;5.97;;;4.20;;
77495;SDS011;66600;48.378;9.948;2024-03-23T02:01:35;5.53;;;4.30;;
77495;SDS011;66600;48.378;9.948;2024-03-23T02:02:08;7.60;;;4.65;;
77495;SDS011;66600;48.378;9.948;2024-03-23T02:02:44;7.25;;;4.40;;
77495;SDS011;66600;48.378;9.948;2024-03-23T02:03:22;7.05;;;4.32;;
77495;SDS011;66600;48.378;9.948;2024-03-23T02:03:55;6.82;;;4.38;;
77495;SDS011;66600;48.378;9.948;2024-03-23T02:04:26;6.72;;;4.25;;
77495;SDS011;66600;48.378;9.948;2024-03-23T02:04:56;7.50;;;4.25;;
77495;SDS011;66600;48.378;9.948;2024-03-23T02:05:27;7.65;;;4.53;;
77495;SDS011;66600;48.378;9.948;2024-03-23T02:05:57;6.85;;;4.40;;
77495;SDS011;66600;48.378;9.948;2024-03-23T02:06:28;7.32;;;4.47;;
77495;SDS011;66600;48.378;9.948;2024-03-23T02:06:58;7.15;;;4.18;;
77495;SDS011;66600;48.378;9.948;2024-03-23T02:07:29;7.47;;;4.28;;
77495;SDS011;66600;48.378;9.948;2024-03-23T02:07:59;7.47;;;4.32;;
77495;SDS011;66600;48.378;9.948;2024-03-23T02:08:30;5.40;;;4.28;;
77495;SDS011;66600;48.378;9.948;2024-03-23T02:09:01;7.05;;;4.00;;
77495;SDS011;66600;48.378;9.948;2024-03-23T02:09:31;6.32;;;4.38;;
77495;SDS011;66600;48.378;9.948;2024-03-23T02:10:02;7.43;;;4.30;;
77495;SDS011;66600;48.378;9.948;2024-03-23T02:10:32;6.18;;;4.10;;
77495;SDS011;66600;48.378;9.948;2024-03-23T02:11:03;6.72;;;4.22;;
77495;SDS011;66600;48.378;9.948;2024-03-23T02:11:33;6.60;;;4.32;;
77495;SDS011;66600;48.378;9.948;2024-03-23T02:12:04;8.43;;;4.43;;
77495;SDS011;66600;48.378;9.948;2024-03-23T02:12:35;6.72;;;4.47;;
77495;SDS011;66600;48.378;9.948;2024-03-23T02:13:06;5.22;;;4.00;;
77495;SDS011;66600;48.378;9.948;2024-03-23T02:13:36;6.90;;;4.20;;
77495;SDS011;66600;48.378;9.948;2024-03-23T02:14:07;7.50;;;4.30;;
77495;SDS011;66600;48.378;9.948;2024-03-23T02:14:37;7.82;;;3.90;;
77495;SDS011;66600;48.378;9.948;2024-03-23T02:15:08;5.35;;;4.25;;
77495;SDS011;66600;48.378;9.948;2024-03-23T02:15:39;6.97;;;4.10;;
77495;SDS011;66600;48.378;9.948;2024-03-23T02:16:09;6.78;;;4.47;;
77495;SDS011;66600;48.378;9.948;2024-03-23T02:16:40;10.27;;;4.40;;
77495;SDS011;66600;48.378;9.948;2024-03-23T02:17:11;7.40;;;4.30;;
77495;SDS011;66600;48.378;9.948;2024-03-23T02:17:42;5.88;;;4.10;;
77495;SDS011;66600;48.378;9.948;2024-03-23T02:18:13;5.47;;;3.90;;
77495;SDS011;66600;48.378;9.948;2024-03-23T02:18:43;6.10;;;4.35;;
77495;SDS011;66600;48.378;9.948;2024-03-23T02:19:14;6.85;;;4.32;;
77495;SDS011;66600;48.378;9.948;2024-03-23T02:19:44;6.72;;;4.20;;
77495;SDS011;66600;48.378;9.948;2024-03-23T02:20:16;6.97;;;4.40;;
77495;SDS011;66600;48.378;9.948;2024-03-23T02:20:47;7.38;;;4.50;;
77495;SDS011;66600;48.378;9.948;2024-03-23T02:21:17;7.50;;;4.10;;
77495;SDS011;66600;48.378;9.948;2024-03-23T02:21:47;6.63;;;4.15;;
77495;SDS011;66600;48.378;9.948;2024-03-23T02:22:18;6.57;;;4.45;;
77495;SDS011;66600;48.378;9.948;2024-03-23T02:22:51;5.90;;;4.45;;
77495;SDS011;66600;48.378;9.948;2024-03-23T02:23:22;7.38;;;4.43;;
77495;SDS011;66600;48.378;9.948;2024-03-23T02:23:54;6.07;;;4.18;;
77495;SDS011;66600;48.378;9.948;2024-03-23T02:24:24;6.35;;;4.00;;
77495;SDS011;66600;48.378;9.948;2024-03-23T02:24:55;7.20;;;4.32;;
77495;SDS011;66600;48.378;9.948;2024-03-23T02:25:25;6.10;;;3.97;;
77495;SDS011;66600;48.378;9.948;2024-03-23T02:25:56;6.18;;;4.20;;
77495;SDS011;66600;48.378;9.948;2024-03-23T02:26:26;5.97;;;4.22;;
77495;SDS011;66600;48.378;9.948;2024-03-23T02:26:56;9.90;;;4.53;;
77495;SDS011;66600;48.378;9.948;2024-03-23T02:27:27;6.20;;;4.47;;
77495;SDS011;66600;48.378;9.948;2024-03-23T02:27:57;7.28;;;4.25;;
77495;SDS011;66600;48.378;9.948;2024-03-23T02:28:29;6.75;;;4.30;;
77495;SDS011;66600;48.378;9.948;2024-03-23T02:28:59;8.27;;;4.43;;
77495;SDS011;66600;48.378;9.948;2024-03-23T02:29:30;7.60;;;4.53;;
77495;SDS011;66600;48.378;9.948;2024-03-23T02:30:00;6.07;;;4.10;;
77495;SDS011;66600;48.378;9.948;2024-03-23T02:30:30;8.27;;;4.45;;
77495;SDS011;66600;48.378;9.948;2024-03-23T02:31:01;6.32;;;4.20;;
77495;SDS011;66600;48.378;9.948;2024-03-23T02:31:32;7.07;;;3.97;;
77495;SDS011;66600;48.378;9.948;2024-03-23T02:32:02;5.65;;;4.13;;
77495;SDS011;66600;48.378;9.948;2024-03-23T02:32:32;7.57;;;4.60;;
77495;SDS011;66600;48.378;9.948;2024-03-23T02:33:03;6.10;;;4.50;;
77495;SDS011;66600;48.378;9.948;2024-03-23T02:33:34;6.10;;;4.20;;
77495;SDS011;66600;48.378;9.948;2024-03-23T02:34:08;6.65;;;4.03;;
77495;SDS011;66600;48.378;9.948;2024-03-23T02:34:38;6.05;;;4.25;;
77495;SDS011;66600;48.378;9.948;2024-03-23T02:35:09;7.35;;;4.05;;
77495;SDS011;66600;48.378;9.948;2024-03-23T02:35:39;6.47;;;3.95;;
77495;SDS011;66600;48.378;9.948;2024-03-23T02:36:09;7.22;;;4.20;;
77495;SDS011;66600;48.378;9.948;2024-03-23T02:36:40;5.45;;;4.05;;
77495;SDS011;66600;48.378;9.948;2024-03-23T02:37:10;7.22;;;4.35;;
77495;SDS011;66600;48.378;9.948;2024-03-23T02:37:41;7.45;;;4.50;;
77495;SDS011;66600;48.378;9.948;2024-03-23T02:38:12;6.03;;;4.60;;
77495;SDS011;66600;48.378;9.948;2024-03-23T02:38:42;8.35;;;4.88;;
77495;SDS011;66600;48.378;9.948;2024-03-23T02:39:12;8.00;;;4.25;;
77495;SDS011;66600;48.378;9.948;2024-03-23T02:39:43;8.13;;;4.15;;
77495;SDS011;66600;48.378;9.948;2024-03-23T02:40:13;5.32;;;4.43;;
77495;SDS011;66600;48.378;9.948;2024-03-23T02:40:44;7.78;;;4.20;;
77495;SDS011;66600;48.378;9.948;2024-03-23T02:41:14;6.90;;;4.72;;
77495;SDS011;66600;48.378;9.948;2024-03-23T02:41:44;6.43;;;4.28;;
77495;SDS011;66600;48.378;9.948;2024-03-23T02:42:15;7.55;;;4.32;;
77495;SDS011;66600;48.378;9.948;2024-03-23T02:42:47;6.60;;;4.47;;
77495;SDS011;66600;48.378;9.948;2024-03-23T02:43:18;11.48;;;4.45;;
77495;SDS011;66600;48.378;9.948;2024-03-23T02:43:51;6.70;;;4.38;;
77495;SDS011;66600;48.378;9.948;2024-03-23T02:44:21;6.75;;;4.95;;
77495;SDS011;66600;48.378;9.948;2024-03-23T02:44:51;6.57;;;4.80;;
77495;SDS011;66600;48.378;9.948;2024-03-23T02:45:22;8.38;;;4.70;;
77495;SDS011;66600;48.378;9.948;2024-03-23T02:45:52;6.28;;;4.40;;
77495;SDS011;66600;48.378;9.948;2024-03-23T02:46:23;5.05;;;3.97;;
77495;SDS011;66600;48.378;9.948;2024-03-23T02:46:53;8.13;;;4.72;;
77495;SDS011;66600;48.378;9.948;2024-03-23T02:47:23;7.65;;;4.63;;
77495;SDS011;66600;48.378;9.948;2024-03-23T02:47:54;6.88;;;4.20;;
77495;SDS011;66600;48.378;9.948;2024-03-23T02:48:24;7.47;;;4.53;;
77495;SDS011;66600;48.378;9.948;2024-03-23T02:48:54;5.72;;;4.63;;
77495;SDS011;66600;48.378;9.948;2024-03-23T02:49:26;7.30;;;4.63;;
77495;SDS011;66600;48.378;9.948;2024-03-23T02:49:57;6.80;;;4.47;;
77495;SDS011;66600;48.378;9.948;2024-03-23T02:50:27;7.65;;;4.63;;
77495;SDS011;66600;48.378;9.948;2024-03-23T02:50:58;8.15;;;4.47;;
77495;SDS011;66600;48.378;9.948;2024-03-23T02:51:28;6.53;;;4.60;;
77495;SDS011;66600;48.378;9.948;2024-03-23T02:51:58;6.57;;;4.22;;
77495;SDS011;66600;48.378;9.948;2024-03-23T02:52:29;5.75;;;4.20;;
77495;SDS011;66600;48.378;9.948;2024-03-23T02:52:59;8.73;;;4.28;;
77495;SDS011;66600;48.378;9.948;2024-03-23T02:53:29;5.68;;;4.05;;
77495;SDS011;66600;48.378;9.948;2024-03-23T02:54:00;6.63;;;4.40;;
77495;SDS011;66600;48.378;9.948;2024-03-23T02:54:30;7.60;;;4.70;;
77495;SDS011;66600;48.378;9.948;2024-03-23T02:55:01;6.10;;;3.95;;
77495;SDS011;66600;48.378;9.948;2024-03-23T02:55:34;6.35;;;4.40;;
77495;SDS011;66600;48.378;9.948;2024-03-23T02:56:05;8.40;;;4.38;;
77495;SDS011;66600;48.378;9.948;2024-03-23T02:56:36;6.45;;;4.22;;
77495;SDS011;66600;48.378;9.948;2024-03-23T02:57:07;6.65;;;4.43;;
77495;SDS011;66600;48.378;9.948;2024-03-23T02:57:37;6.25;;;4.40;;
77495;SDS011;66600;48.378;9.948;2024-03-23T02:58:07;7.70;;;4.88;;
77495;SDS011;66600;48.378;9.948;2024-03-23T02:58:38;5.97;;;4.18;;
77495;SDS011;66600;48.378;9.948;2024-03-23T02:59:08;6.95;;;5.03;;
77495;SDS011;66600;48.378;9.948;2024-03-23T02:59:38;6.35;;;4.60;;
77495;SDS011;66600;48.378;9.948;2024-03-23T03:00:09;7.85;;;4.60;;
77495;SDS011;66600;48.378;9.948;2024-03-23T03:00:41;6.07;;;4.10;;
77495;SDS011;66600;48.378;9.948;2024-03-23T03:01:11;5.97;;;4.40;;
77495;SDS011;66600;48.378;9.948;2024-03-23T03:01:41;6.32;;;4.30;;
77495;SDS011;66600;48.378;9.948;2024-03-23T03:02:12;8.65;;;4.35;;
77495;SDS011;66600;48.378;9.948;2024-03-23T03:02:43;7.68;;;4.65;;
77495;SDS011;66600;48.378;9.948;2024-03-23T03:03:14;7.38;;;4.50;;
77495;SDS011;66600;48.378;9.948;2024-03-23T03:03:44;6.55;;;4.38;;
77495;SDS011;66600;48.378;9.948;2024-03-23T03:04:14;5.88;;;4.40;;
77495;SDS011;66600;48.378;9.948;2024-03-23T03:04:45;5.45;;;4.47;;
77495;SDS011;66600;48.378;9.948;2024-03-23T03:05:15;8.00;;;4.50;;
77495;SDS011;66600;48.378;9.948;2024-03-23T03:05:45;6.60;;;4.20;;
77495;SDS011;66600;48.378;9.948;2024-03-23T03:06:25;6.85;;;4.72;;
77495;SDS011;66600;48.378;9.948;2024-03-23T03:06:56;7.18;;;4.53;;
77495;SDS011;66600;48.378;9.948;2024-03-23T03:07:26;6.05;;;4.32;;
77495;SDS011;66600;48.378;9.948;2024-03-23T03:07:57;6.43;;;4.50;;
77495;SDS011;66600;48.378;9.948;2024-03-23T03:08:27;6.70;;;4.55;;
77495;SDS011;66600;48.378;9.948;2024-03-23T03:08:57;6.82;;;4.43;;
77495;SDS011;66600;48.378;9.948;2024-03-23T03:09:28;7.95;;;4.72;;
77495;SDS011;66600;48.378;9.948;2024-03-23T03:09:58;7.13;;;4.93;;
77495;SDS011;66600;48.378;9.948;2024-03-23T03:10:28;8.90;;;5.13;;
77495;SDS011;66600;48.378;9.948;2024-03-23T03:10:59;8.45;;;4.88;;
77495;SDS011;66600;48.378;9.948;2024-03-23T03:11:29;7.30;;;5.10;;
77495;SDS011;66600;48.378;9.948;2024-03-23T03:12:00;8.07;;;4.88;;
77495;SDS011;66600;48.378;9.948;2024-03-23T03:12:30;12.32;;;5.15;;
77495;SDS011;66600;48.378;9.948;2024-03-23T03:13:00;6.70;;;4.90;;
77495;SDS011;66600;48.378;9.948;2024-03-23T03:13:31;6.57;;;4.93;;
77495;SDS011;66600;48.378;9.948;2024-03-23T03:14:01;7.68;;;4.82;;
77495;SDS011;66600;48.378;9.948;2024-03-23T03:14:32;7.65;;;4.88;;
77495;SDS011;66600;48.378;9.948;2024-03-23T03:15:03;7.07;;;5.00;;
77495;SDS011;66600;48.378;9.948;2024-03-23T03:15:34;6.90;;;4.75;;
77495;SDS011;66600;48.378;9.948;2024-03-23T03:16:08;6.90;;;5.00;;
77495;SDS011;66600;48.378;9.948;2024-03-23T03:16:39;6.72;;;4.80;;
77495;SDS011;66600;48.378;9.948;2024-03-23T03:17:09;6.82;;;4.70;;
77495;SDS011;66600;48.378;9.948;2024-03-23T03:17:40;7.18;;;4.85;;
77495;SDS011;66600;48.378;9.948;2024-03-23T03:18:10;7.00;;;4.95;;
77495;SDS011;66600;48.378;9.948;2024-03-23T03:18:40;7.60;;;4.78;;
77495;SDS011;66600;48.378;9.948;2024-03-23T03:19:11;6.30;;;4.57;;
77495;SDS011;66600;48.378;9.948;2024-03-23T03:19:41;8.57;;;5.05;;
77495;SDS011;66600;48.378;9.948;2024-03-23T03:20:12;6.18;;;4.80;;
77495;SDS011;66600;48.378;9.948;2024-03-23T03:20:43;8.20;;;4.65;;
77495;SDS011;66600;48.378;9.948;2024-03-23T03:21:14;7.60;;;4.95;;
77495;SDS011;66600;48.378;9.948;2024-03-23T03:21:44;7.07;;;4.78;;
77495;SDS011;66600;48.378;9.948;2024-03-23T03:22:14;7.63;;;4.82;;
77495;SDS011;66600;48.378;9.948;2024-03-23T03:22:45;9.10;;;4.75;;
77495;SDS011;66600;48.378;9.948;2024-03-23T03:23:15;7.20;;;5.13;;
77495;SDS011;66600;48.378;9.948;2024-03-23T03:23:46;9.25;;;4.90;;
77495;SDS011;66600;48.378;9.948;2024-03-23T03:24:16;8.95;;;4.90;;
77495;SDS011;66600;48.378;9.948;2024-03-23T03:24:47;7.97;;;4.80;;
77495;SDS011;66600;48.378;9.948;2024-03-23T03:25:17;8.32;;;4.90;;
77495;SDS011;66600;48.378;9.948;2024-03-23T03:25:47;6.88;;;4.65;;
77495;SDS011;66600;48.378;9.948;2024-03-23T03:26:18;9.07;;;5.32;;
77495;SDS011;66600;48.378;9.948;2024-03-23T03:26:48;7.10;;;4.80;;
77495;SDS011;66600;48.378;9.948;2024-03-23T03:27:19;7.35;;;5.20;;
77495;SDS011;66600;48.378;9.948;2024-03-23T03:27:51;9.43;;;5.00;;
77495;SDS011;66600;48.378;9.948;2024-03-23T03:28:21;7.32;;;5.15;;
77495;SDS011;66600;48.378;9.948;2024-03-23T03:28:52;7.60;;;4.45;;
77495;SDS011;66600;48.378;9.948;2024-03-23T03:29:22;8.32;;;5.28;;
77495;SDS011;66600;48.378;9.948;2024-03-23T03:29:52;8.10;;;5.00;;
77495;SDS011;66600;48.378;9.948;2024-03-23T03:30:23;7.85;;;4.95;;
77495;SDS011;66600;48.378;9.948;2024-03-23T03:30:53;8.65;;;4.72;;
77495;SDS011;66600;48.378;9.948;2024-03-23T03:31:23;7.28;;;4.75;;
77495;SDS011;66600;48.378;9.948;2024-03-23T03:31:54;5.85;;;4.68;;
77495;SDS011;66600;48.378;9.948;2024-03-23T03:32:24;8.32;;;5.22;;
77495;SDS011;66600;48.378;9.948;2024-03-23T03:32:54;7.40;;;5.03;;
77495;SDS011;66600;48.378;9.948;2024-03-23T03:33:28;7.97;;;4.80;;
77495;SDS011;66600;48.378;9.948;2024-03-23T03:33:58;8.63;;;5.07;;
77495;SDS011;66600;48.378;9.948;2024-03-23T03:34:28;8.00;;;5.13;;
77495;SDS011;66600;48.378;9.948;2024-03-23T03:34:59;10.02;;;5.15;;
77495;SDS011;66600;48.378;9.948;2024-03-23T03:35:29;7.82;;;5.18;;
77495;SDS011;66600;48.378;9.948;2024-03-23T03:36:00;7.90;;;5.10;;
77495;SDS011;66600;48.378;9.948;2024-03-23T03:36:30;10.50;;;5.13;;
77495;SDS011;66600;48.378;9.948;2024-03-23T03:37:01;10.13;;;5.68;;
77495;SDS011;66600;48.378;9.948;2024-03-23T03:37:31;6.82;;;5.28;;
77495;SDS011;66600;48.378;9.948;2024-03-23T03:38:01;7.70;;;5.00;;
77495;SDS011;66600;48.378;9.948;2024-03-23T03:38:32;7.93;;;5.03;;
77495;SDS011;66600;48.378;9.948;2024-03-23T03:39:02;7.80;;;5.78;;
77495;SDS011;66600;48.378;9.948;2024-03-23T03:39:34;7.90;;;4.93;;
77495;SDS011;66600;48.378;9.948;2024-03-23T03:40:04;6.72;;;5.10;;
77495;SDS011;66600;48.378;9.948;2024-03-23T03:40:35;7.32;;;5.30;;
77495;SDS011;66600;48.378;9.948;2024-03-23T03:41:05;7.60;;;4.82;;
77495;SDS011;66600;48.378;9.948;2024-03-23T03:41:36;9.95;;;5.00;;
77495;SDS011;66600;48.378;9.948;2024-03-23T03:42:06;9.50;;;4.80;;
77495;SDS011;66600;48.378;9.948;2024-03-23T03:42:37;7.95;;;5.07;;
77495;SDS011;66600;48.378;9.948;2024-03-23T03:43:08;8.27;;;5.15;;
77495;SDS011;66600;48.378;9.948;2024-03-23T03:43:38;8.38;;;4.93;;
77495;SDS011;66600;48.378;9.948;2024-03-23T03:44:08;6.78;;;4.95;;
77495;SDS011;66600;48.378;9.948;2024-03-23T03:44:39;8.65;;;5.32;;
77495;SDS011;66600;48.378;9.948;2024-03-23T03:45:09;7.28;;;5.13;;
77495;SDS011;66600;48.378;9.948;2024-03-23T03:45:40;9.07;;;5.07;;
77495;SDS011;66600;48.378;9.948;2024-03-23T03:46:10;9.93;;;5.20;;
77495;SDS011;66600;48.378;9.948;2024-03-23T03:46:41;7.97;;;5.10;;
77495;SDS011;66600;48.378;9.948;2024-03-23T03:47:11;8.95;;;4.53;;
77495;SDS011;66600;48.378;9.948;2024-03-23T03:47:41;7.70;;;5.15;;
77495;SDS011;66600;48.378;9.948;2024-03-23T03:48:12;8.23;;;5.20;;
77495;SDS011;66600;48.378;9.948;2024-03-23T03:48:42;7.03;;;4.93;;
77495;SDS011;66600;48.378;9.948;2024-03-23T03:49:15;7.28;;;5.30;;
77495;SDS011;66600;48.378;9.948;2024-03-23T03:49:45;9.65;;;5.03;;
77495;SDS011;66600;48.378;9.948;2024-03-23T03:50:15;7.45;;;5.50;;
77495;SDS011;66600;48.378;9.948;2024-03-23T03:50:46;8.07;;;4.70;;
77495;SDS011;66600;48.378;9.948;2024-03-23T03:51:16;7.50;;;4.88;;
77495;SDS011;66600;48.378;9.948;2024-03-23T03:51:47;6.30;;;5.03;;
77495;SDS011;66600;48.378;9.948;2024-03-23T03:52:17;7.78;;;5.03;;
77495;SDS011;66600;48.378;9.948;2024-03-23T03:52:47;10.45;;;4.90;;
77495;SDS011;66600;48.378;9.948;2024-03-23T03:53:18;7.78;;;5.35;;
77495;SDS011;66600;48.378;9.948;2024-03-23T03:53:49;7.07;;;4.50;;
77495;SDS011;66600;48.378;9.948;2024-03-23T03:54:19;7.97;;;5.00;;
77495;SDS011;66600;48.378;9.948;2024-03-23T03:54:50;8.52;;;5.22;;
77495;SDS011;66600;48.378;9.948;2024-03-23T03:55:21;7.68;;;5.05;;
77495;SDS011;66600;48.378;9.948;2024-03-23T03:55:51;8.40;;;5.10;;
77495;SDS011;66600;48.378;9.948;2024-03-23T03:56:21;8.52;;;4.82;;
77495;SDS011;66600;48.378;9.948;2024-03-23T03:56:52;7.93;;;4.72;;
77495;SDS011;66600;48.378;9.948;2024-03-23T03:57:23;7.38;;;5.13;;
77495;SDS011;66600;48.378;9.948;2024-03-23T03:57:53;7.10;;;4.38;;
77495;SDS011;66600;48.378;9.948;2024-03-23T03:58:23;7.22;;;5.00;;